Terminal Aerodrome Forecast
Issued by NWS Sterling, VA

Current Version | Previous Version | Graphics & Text | Print | Product List | Glossary On
Versions: 1 2 3 4 5 6 7 8 9 10 11 12 13 14 15 16
100
FTUS41 KLWX 222331
TAFMRB
TAF
KMRB 222331Z 2300/2324 23004KT P6SM BKN070
     FM230600 24004KT P6SM SHRA BKN070
     FM231100 20006KT P6SM SHRA OVC025
     FM231300 20008KT P6SM OVC020
     FM231500 22012G20KT P6SM BKN035=

USA.gov is the U.S. government's official web portal to all federal, state and local government web resources and services.